Time;durP1;ratioP1;P1;durP2;ratioP2;P2;SDS_P1;SDS_P2;PMS_P1;PMS_P2;Temp;Humidity;BMP_temperature;BMP_pressure;BME280_temperature;BME280_humidity;BME280_pressure;Samples;Min_cycle;Max_cycle;Signal;HPM_P1;HPM_P2
2023/10/10 00:01:38;;;;;;;13.95;8.45;;;15.90;99.90;;;;;;5071968;28;20407;-30
2023/10/10 00:04:05;;;;;;;9.07;7.13;;;15.90;99.90;;;;;;5071760;28;20044;-27
2023/10/10 00:06:34;;;;;;;12.65;9.07;;;15.90;99.90;;;;;;5071526;28;20048;-29
2023/10/10 00:08:59;;;;;;;11.32;8.80;;;15.90;99.90;;;;;;5071672;28;20407;-29
2023/10/10 00:11:26;;;;;;;10.38;7.85;;;15.90;99.90;;;;;;5071810;28;20352;-29
2023/10/10 00:13:52;;;;;;;10.98;9.02;;;15.90;99.90;;;;;;5071604;28;20036;-28
2023/10/10 00:16:26;;;;;;;9.88;8.88;;;15.90;99.90;;;;;;5071805;28;20461;-30
2023/10/10 00:18:56;;;;;;;11.23;8.13;;;15.90;99.90;;;;;;5071125;28;20041;-29
2023/10/10 00:21:23;;;;;;;12.20;9.85;;;15.90;99.90;;;;;;5071362;28;20047;-27
2023/10/10 00:23:50;;;;;;;11.68;9.57;;;15.90;99.90;;;;;;5066803;28;20050;-29
2023/10/10 00:26:26;;;;;;;13.98;10.35;;;15.90;99.90;;;;;;5072286;28;20084;-30
2023/10/10 00:28:57;;;;;;;11.73;8.85;;;15.90;99.90;;;;;;5075171;28;20403;-28
2023/10/10 00:31:24;;;;;;;9.93;7.93;;;15.90;99.90;;;;;;5075434;28;20043;-28
2023/10/10 00:33:51;;;;;;;12.20;8.57;;;15.90;99.90;;;;;;5074839;28;20041;-29
2023/10/10 00:36:22;;;;;;;12.80;8.75;;;15.90;99.90;;;;;;5074772;28;20142;-29
2023/10/10 00:39:30;;;;;;;13.23;8.68;;;15.90;99.90;;;;;;5074858;28;20090;-29
2023/10/10 00:41:50;;;;;;;12.85;9.13;;;15.90;99.90;;;;;;5070644;28;20542;-29
2023/10/10 00:44:16;;;;;;;10.15;8.32;;;15.90;99.90;;;;;;5075082;28;20062;-29
2023/10/10 00:46:47;;;;;;;12.23;8.80;;;15.90;99.90;;;;;;5074787;28;20079;-29
2023/10/10 00:49:17;;;;;;;10.52;7.43;;;15.90;99.90;;;;;;5074653;28;20075;-29
2023/10/10 00:51:47;;;;;;;13.27;8.52;;;15.90;99.90;;;;;;5074523;28;20067;-30
2023/10/10 00:56:54;;;;;;;10.38;8.15;;;15.90;99.90;;;;;;5074864;28;20101;-30
2023/10/10 00:59:34;;;;;;;9.98;7.82;;;15.90;99.90;;;;;;5074855;28;20037;-29
2023/10/10 01:02:04;;;;;;;12.43;8.75;;;15.90;99.90;;;;;;5073048;28;20055;-29
2023/10/10 01:07:29;;;;;;;8.88;7.95;;;15.90;99.90;;;;;;5040117;28;20083;-27
2023/10/10 01:09:59;;;;;;;10.95;8.00;;;15.90;99.90;;;;;;5074406;28;20083;-30
2023/10/10 01:12:35;;;;;;;9.77;7.22;;;15.90;99.90;;;;;;5074548;28;20123;-29
2023/10/10 01:15:12;;;;;;;8.68;6.70;;;15.90;99.90;;;;;;5074691;28;20052;-29
2023/10/10 01:17:38;;;;;;;9.98;7.75;;;15.90;99.90;;;;;;5074536;28;20118;-29
2023/10/10 01:22:49;;;;;;;10.82;7.60;;;15.90;99.90;;;;;;5074574;28;20102;-29
2023/10/10 01:25:41;;;;;;;9.32;7.00;;;15.90;99.90;;;;;;5074112;28;20540;-29
2023/10/10 01:28:14;;;;;;;15.32;6.68;;;15.90;99.90;;;;;;5074244;28;20552;-31
2023/10/10 01:36:13;;;;;;;12.10;7.35;;;15.90;99.90;;;;;;5074234;28;20045;-30
2023/10/10 01:38:44;;;;;;;13.35;6.82;;;15.90;99.90;;;;;;5073782;28;20067;-30
2023/10/10 01:41:22;;;;;;;6.50;5.80;;;15.90;99.90;;;;;;5069184;28;20491;-28
2023/10/10 01:43:53;;;;;;;9.27;6.20;;;15.90;99.90;;;;;;5054126;28;20187;-27
2023/10/10 01:46:27;;;;;;;9.02;5.95;;;15.90;99.90;;;;;;5062644;28;20508;-27
2023/10/10 01:48:57;;;;;;;9.40;6.13;;;15.90;99.90;;;;;;5073636;28;20119;-29
2023/10/10 01:51:29;;;;;;;12.88;5.90;;;15.90;99.90;;;;;;5073802;28;20491;-30
2023/10/10 01:53:57;;;;;;;9.60;5.90;;;15.90;99.90;;;;;;5073741;28;20041;-28
2023/10/10 01:56:25;;;;;;;5.88;5.25;;;15.90;99.90;;;;;;5069208;28;20048;-27
2023/10/10 01:58:53;;;;;;;8.75;5.93;;;15.90;99.90;;;;;;5053618;28;20055;-29
2023/10/10 02:01:20;;;;;;;7.57;5.82;;;15.90;99.90;;;;;;5053894;28;20120;-29
2023/10/10 02:03:47;;;;;;;7.97;5.88;;;15.90;99.90;;;;;;5052079;28;20174;-30
2023/10/10 02:06:22;;;;;;;10.60;6.57;;;15.80;99.90;;;;;;5053646;28;20128;-29
2023/10/10 02:08:51;;;;;;;10.95;5.78;;;15.90;99.90;;;;;;5051836;28;20124;-28
2023/10/10 02:11:21;;;;;;;7.40;6.03;;;15.90;99.90;;;;;;5053579;28;20095;-28
2023/10/10 02:13:53;;;;;;;8.15;6.45;;;15.90;99.90;;;;;;5053245;28;20110;-28
2023/10/10 02:16:23;;;;;;;7.13;5.45;;;15.90;99.90;;;;;;5053335;28;20116;-27
2023/10/10 02:18:53;;;;;;;9.05;6.70;;;15.90;99.90;;;;;;5052939;28;20068;-31
2023/10/10 02:21:31;;;;;;;8.48;6.22;;;15.90;99.90;;;;;;5053195;28;20036;-30
2023/10/10 02:26:51;;;;;;;10.50;7.00;;;15.80;99.90;;;;;;5069885;28;20124;-29
2023/10/10 02:29:19;;;;;;;11.55;7.10;;;15.80;99.90;;;;;;5073008;28;20041;-29
2023/10/10 02:31:51;;;;;;;10.63;7.28;;;15.80;99.90;;;;;;5072992;28;20044;-28
2023/10/10 02:34:19;;;;;;;10.40;6.28;;;15.80;99.90;;;;;;5072955;28;20483;-29
2023/10/10 02:36:58;;;;;;;11.32;7.40;;;15.80;99.90;;;;;;5072823;28;20438;-30
2023/10/10 02:39:29;;;;;;;10.40;6.63;;;15.80;99.90;;;;;;5073133;28;20033;-30
2023/10/10 02:41:59;;;;;;;10.57;7.30;;;15.80;99.90;;;;;;5072856;28;20411;-29
2023/10/10 02:45:07;;;;;;;10.57;7.30;;;15.80;99.90;;;;;;5072897;28;20507;-29
2023/10/10 02:47:29;;;;;;;8.95;7.22;;;15.70;99.90;;;;;;5066124;28;20060;-28
2023/10/10 02:50:11;;;;;;;8.98;7.13;;;15.70;99.90;;;;;;5072717;28;20060;-30
2023/10/10 02:52:45;;;;;;;9.55;6.75;;;15.70;99.90;;;;;;5072497;28;20115;-29
2023/10/10 02:55:16;;;;;;;9.95;6.68;;;15.60;99.90;;;;;;5072730;28;20138;-29
2023/10/10 02:57:42;;;;;;;9.88;7.00;;;15.60;99.90;;;;;;5072196;28;20041;-29
2023/10/10 03:02:55;;;;;;;10.15;7.07;;;15.50;99.90;;;;;;5072422;28;20101;-29
2023/10/10 03:05:39;;;;;;;11.05;6.78;;;15.50;99.90;;;;;;5072311;28;20068;-30
2023/10/10 03:08:13;;;;;;;10.05;7.28;;;15.40;99.90;;;;;;5072161;28;20045;-28
2023/10/10 03:10:46;;;;;;;9.13;6.55;;;15.40;99.90;;;;;;5072224;28;20116;-29
2023/10/10 03:24:29;;;;;;;9.02;7.47;;;15.20;99.90;;;;;;5079236;22;20063;-87
2023/10/10 03:27:37;;;;;;;8.50;7.63;;;15.20;99.90;;;;;;5081913;28;20071;-86
2023/10/10 03:29:47;;;;;;;15.00;8.13;;;15.20;99.90;;;;;;5063248;28;20052;-86
2023/10/10 03:32:30;;;;;;;8.00;7.22;;;15.20;99.90;;;;;;5046452;28;20102;-87
2023/10/10 03:34:57;;;;;;;9.57;7.60;;;15.20;99.90;;;;;;5050071;28;20052;-87
2023/10/10 03:39:55;;;;;;;10.07;7.10;;;15.20;99.90;;;;;;5061472;28;20040;-87
2023/10/10 05:24:24;;;;;;;23.67;16.90;;;15.30;99.90;;;;;;5065373;28;20059;-87
2023/10/10 05:26:49;;;;;;;22.40;16.02;;;15.30;99.90;;;;;;5070559;28;20047;-88
2023/10/10 05:29:24;;;;;;;20.45;15.32;;;15.30;99.90;;;;;;5071003;28;20048;-87
2023/10/10 05:31:51;;;;;;;20.67;16.63;;;15.20;99.90;;;;;;5053821;28;20085;-89
2023/10/10 05:34:22;;;;;;;20.02;16.27;;;15.10;99.90;;;;;;5074006;28;20048;-90
2023/10/10 05:36:48;;;;;;;24.88;15.60;;;15.10;99.90;;;;;;5061324;28;20093;-90
2023/10/10 05:39:23;;;;;;;26.90;17.25;;;15.10;99.90;;;;;;5066518;28;20648;-90
2023/10/10 05:41:54;;;;;;;20.42;16.40;;;15.10;99.90;;;;;;5072216;28;20040;-88
2023/10/10 05:44:20;;;;;;;25.67;16.70;;;15.10;99.90;;;;;;5054854;28;20040;-86
2023/10/10 05:46:47;;;;;;;24.17;17.25;;;15.00;99.90;;;;;;5050126;28;20067;-86
2023/10/10 05:49:13;;;;;;;23.10;17.75;;;15.00;99.90;;;;;;5040246;28;20044;-84
2023/10/10 05:51:40;;;;;;;23.60;17.50;;;14.90;99.90;;;;;;5067187;28;20047;-86
2023/10/10 05:54:15;;;;;;;27.52;17.35;;;14.90;99.90;;;;;;5048514;28;20112;-87
2023/10/10 05:56:41;;;;;;;24.65;17.60;;;14.90;99.90;;;;;;5066065;28;20040;-87
2023/10/10 05:59:08;;;;;;;23.20;17.15;;;14.90;99.90;;;;;;5046448;28;20032;-87
2023/10/10 06:01:36;;;;;;;25.08;18.30;;;14.90;99.90;;;;;;5085765;28;20123;-85
2023/10/10 06:04:01;;;;;;;24.67;18.63;;;14.80;99.90;;;;;;5052872;28;20059;-86
2023/10/10 06:06:28;;;;;;;23.42;17.45;;;14.80;99.90;;;;;;5044604;28;20495;-87
2023/10/10 06:09:00;;;;;;;24.27;17.65;;;14.80;99.90;;;;;;5050385;28;20462;-86
2023/10/10 06:11:27;;;;;;;28.40;20.15;;;14.80;99.90;;;;;;5047953;28;20046;-87
2023/10/10 06:13:53;;;;;;;25.10;18.23;;;14.80;99.90;;;;;;5051948;28;20537;-86
2023/10/10 06:16:20;;;;;;;27.58;19.33;;;14.80;99.90;;;;;;5069601;28;20028;-86
2023/10/10 06:18:47;;;;;;;27.13;19.58;;;14.90;99.90;;;;;;5061751;28;20101;-84
2023/10/10 06:21:14;;;;;;;29.02;19.55;;;14.90;99.90;;;;;;5064922;28;20036;-86
2023/10/10 06:23:42;;;;;;;30.33;21.20;;;14.90;99.90;;;;;;5042064;28;20044;-86
2023/10/10 06:26:08;;;;;;;26.33;20.73;;;15.00;99.90;;;;;;5053918;28;20039;-87
2023/10/10 06:28:44;;;;;;;30.35;19.88;;;15.00;99.90;;;;;;5060056;28;20048;-85
2023/10/10 06:31:19;;;;;;;27.25;18.92;;;15.00;99.90;;;;;;5060412;28;20044;-84
2023/10/10 06:33:56;;;;;;;27.10;19.92;;;15.10;99.90;;;;;;5044851;28;20037;-86
2023/10/10 06:41:38;;;;;;;32.05;21.30;;;15.30;99.90;;;;;;5069109;28;20076;-86
2023/10/10 06:44:04;;;;;;;29.77;20.33;;;15.30;99.90;;;;;;5064742;28;20040;-88
2023/10/10 06:46:37;;;;;;;33.88;21.58;;;15.40;99.90;;;;;;5059805;28;20050;-87
2023/10/10 06:49:05;;;;;;;28.60;21.15;;;15.40;99.90;;;;;;5081143;28;20043;-87
2023/10/10 06:51:33;;;;;;;31.92;21.77;;;15.50;99.90;;;;;;5068104;28;20044;-89
2023/10/10 06:53:59;;;;;;;27.88;21.67;;;15.60;99.90;;;;;;5053182;28;20036;-86
2023/10/10 06:59:09;;;;;;;29.20;22.38;;;15.80;99.90;;;;;;5059220;28;20032;-87
2023/10/10 07:01:35;;;;;;;30.63;22.45;;;15.80;99.90;;;;;;5046994;28;20042;-86
2023/10/10 07:04:04;;;;;;;34.17;23.73;;;15.90;99.90;;;;;;5064966;28;20041;-87
2023/10/10 07:06:30;;;;;;;32.28;21.50;;;16.00;99.90;;;;;;5048848;28;20055;-87
2023/10/10 07:09:14;;;;;;;30.98;21.65;;;16.00;99.90;;;;;;5076517;28;20549;-87
2023/10/10 07:11:42;;;;;;;32.25;20.67;;;16.20;99.90;;;;;;5066988;28;20395;-86
2023/10/10 07:14:10;;;;;;;36.03;21.58;;;16.20;99.90;;;;;;5041122;28;20036;-87
2023/10/10 07:16:39;;;;;;;29.75;19.75;;;16.30;99.90;;;;;;5063654;28;20037;-87
2023/10/10 07:19:19;;;;;;;28.23;19.77;;;16.30;99.90;;;;;;5074799;28;20047;-87
2023/10/10 07:21:46;;;;;;;36.15;22.27;;;16.30;99.90;;;;;;5048345;28;20406;-86
2023/10/10 07:24:15;;;;;;;37.33;25.15;;;16.30;99.90;;;;;;5044531;28;20032;-87
2023/10/10 07:26:58;;;;;;;35.83;25.67;;;16.30;99.90;;;;;;5066299;28;20114;-86
2023/10/10 07:29:27;;;;;;;44.80;28.08;;;16.40;99.90;;;;;;5050299;28;20071;-87
2023/10/10 07:32:42;;;;;;;37.22;28.35;;;16.40;99.90;;;;;;5061547;28;20040;-87
2023/10/10 07:34:42;;;;;;;39.78;27.98;;;16.40;99.90;;;;;;5049628;28;20047;-86
2023/10/10 07:37:08;;;;;;;44.00;29.95;;;16.40;99.90;;;;;;5070532;28;20071;-86
2023/10/10 07:39:55;;;;;;;46.83;30.75;;;16.50;99.90;;;;;;5061262;28;20048;-87
2023/10/10 07:42:27;;;;;;;42.55;30.60;;;16.50;99.90;;;;;;5058943;28;20073;-87
2023/10/10 07:44:54;;;;;;;42.45;28.85;;;16.50;99.90;;;;;;5041056;28;20101;-87
2023/10/10 07:47:27;;;;;;;43.67;30.80;;;16.50;99.90;;;;;;5042549;28;20077;-87
2023/10/10 07:49:54;;;;;;;46.73;32.17;;;16.50;99.90;;;;;;5083471;28;20149;-87
2023/10/10 07:52:20;;;;;;;50.75;32.25;;;16.40;99.90;;;;;;5049532;28;20282;-86
2023/10/10 07:54:51;;;;;;;50.15;33.03;;;16.50;99.90;;;;;;5065573;28;20032;-86
2023/10/10 07:57:26;;;;;;;48.67;34.08;;;16.40;99.90;;;;;;5054865;28;20121;-86
2023/10/10 07:59:55;;;;;;;50.45;33.97;;;16.40;99.90;;;;;;5053741;28;20039;-86
2023/10/10 08:02:34;;;;;;;56.42;35.55;;;16.40;99.90;;;;;;5050674;28;20047;-87
2023/10/10 08:05:01;;;;;;;62.75;38.25;;;16.40;99.90;;;;;;5046683;28;20036;-87
2023/10/10 08:07:28;;;;;;;62.60;38.28;;;16.40;99.90;;;;;;5062034;28;20051;-87
2023/10/10 08:10:13;;;;;;;67.28;39.25;;;16.40;99.90;;;;;;5079030;28;20040;-86
2023/10/10 08:12:39;;;;;;;67.20;36.95;;;16.40;99.90;;;;;;5056016;28;20034;-86
2023/10/10 08:15:20;;;;;;;69.97;40.78;;;16.40;99.90;;;;;;5067228;28;20450;-86
2023/10/10 08:17:55;;;;;;;62.72;39.22;;;16.40;99.90;;;;;;5043474;28;20032;-87
2023/10/10 08:20:35;;;;;;;71.13;41.38;;;16.40;99.90;;;;;;5051814;28;20037;-87
2023/10/10 08:23:05;;;;;;;62.38;39.65;;;16.40;99.90;;;;;;5071893;28;20402;-87
2023/10/10 08:25:32;;;;;;;70.78;42.67;;;16.50;99.90;;;;;;5050931;28;20107;-86
2023/10/10 08:28:00;;;;;;;68.00;41.85;;;16.50;99.90;;;;;;5048055;28;20036;-87
2023/10/10 08:30:26;;;;;;;70.47;39.95;;;16.50;99.90;;;;;;5054681;28;20059;-86
2023/10/10 08:32:56;;;;;;;90.78;43.47;;;16.50;99.90;;;;;;5050383;28;20036;-87
2023/10/10 08:35:23;;;;;;;98.45;45.00;;;16.50;99.90;;;;;;5046257;28;20054;-85
2023/10/10 08:37:50;;;;;;;99.22;44.47;;;16.60;99.90;;;;;;5059860;28;20708;-84
2023/10/10 08:40:19;;;;;;;80.45;43.47;;;16.60;99.90;;;;;;5046143;28;20046;-84
2023/10/10 08:42:48;;;;;;;78.15;42.50;;;16.60;99.90;;;;;;5061228;28;20506;-84
2023/10/10 08:45:22;;;;;;;80.00;43.10;;;16.70;99.90;;;;;;5066538;28;20461;-86
2023/10/10 08:48:01;;;;;;;84.55;42.97;;;16.80;99.90;;;;;;5051485;28;20498;-86
2023/10/10 08:50:33;;;;;;;71.78;42.53;;;17.00;99.90;;;;;;5050093;28;20055;-86
2023/10/10 08:52:59;;;;;;;67.68;40.72;;;17.20;99.90;;;;;;5062711;28;20033;-87
2023/10/10 08:55:26;;;;;;;64.80;41.17;;;17.20;99.90;;;;;;5057912;28;20028;-86
2023/10/10 08:57:55;;;;;;;71.82;42.40;;;17.30;99.90;;;;;;5067098;28;20174;-86
2023/10/10 09:00:26;;;;;;;62.42;41.97;;;17.50;99.90;;;;;;5051345;28;20106;-87
2023/10/10 09:02:53;;;;;;;69.78;43.08;;;17.60;99.90;;;;;;5068941;28;20123;-86
2023/10/10 09:05:19;;;;;;;59.58;40.47;;;17.80;99.90;;;;;;5051424;28;20071;-86
2023/10/10 09:07:46;;;;;;;66.25;41.83;;;18.20;99.90;;;;;;5065158;28;20435;-87
2023/10/10 09:10:15;;;;;;;59.33;41.78;;;18.30;99.90;;;;;;5049905;28;20036;-86
2023/10/10 09:12:58;;;;;;;59.03;40.80;;;18.30;99.90;;;;;;5046812;28;20033;-86
2023/10/10 09:15:25;;;;;;;;;;;18.30;99.90;;;;;;5056531;28;20071;-86
2023/10/10 09:17:55;;;;;;;56.63;39.40;;;18.30;99.90;;;;;;5058086;28;19931;-85
2023/10/10 09:20:28;;;;;;;64.25;39.58;;;18.50;99.90;;;;;;5073663;28;20036;-84
2023/10/10 09:22:58;;;;;;;59.75;39.95;;;18.70;99.90;;;;;;5053521;28;20517;-82
2023/10/10 09:28:16;;;;;;;65.88;39.60;;;19.40;99.90;;;;;;5088570;28;20546;-27
2023/10/10 09:30:50;;;;;;;62.83;37.88;;;19.60;99.90;;;;;;5075991;28;20087;-26
2023/10/10 09:35:48;;;;;;;46.25;36.60;;;19.90;99.90;;;;;;5088988;28;20076;-26
2023/10/10 09:38:19;;;;;;;51.80;37.75;;;20.10;99.90;;;;;;5082299;28;20038;-27
2023/10/10 09:40:47;;;;;;;50.70;36.45;;;20.40;99.90;;;;;;5073564;28;20048;-26
2023/10/10 09:43:24;;;;;;;49.78;33.92;;;20.50;99.90;;;;;;5093548;28;20039;-26
2023/10/10 09:45:59;;;;;;;46.55;34.50;;;20.70;99.90;;;;;;5091996;28;20036;-26
2023/10/10 09:51:30;;;;;;;44.97;34.72;;;20.70;99.90;;;;;;5084277;28;20059;-26
2023/10/10 09:56:47;;;;;;;41.53;34.15;;;21.00;99.90;;;;;;5089603;28;20048;-26
2023/10/10 09:59:20;;;;;;;39.80;32.72;;;21.20;99.90;;;;;;5087010;28;20039;-26
2023/10/10 10:01:59;;;;;;;39.97;33.22;;;21.30;99.90;;;;;;5089385;28;20111;-25
2023/10/10 10:04:28;;;;;;;43.22;33.25;;;21.30;99.90;;;;;;5087628;28;20116;-26
2023/10/10 10:07:27;;;;;;;41.08;32.65;;;21.40;99.90;;;;;;5085819;28;20067;-26
2023/10/10 10:10:22;;;;;;;40.38;32.10;;;21.30;99.90;;;;;;5087479;28;20051;-26
2023/10/10 10:13:13;;;;;;;43.40;31.42;;;21.40;99.90;;;;;;5071097;28;20071;-25
2023/10/10 10:16:09;;;;;;;39.50;30.08;;;21.50;99.90;;;;;;5090865;28;20051;-25
2023/10/10 10:18:44;;;;;;;43.53;32.83;;;21.50;99.90;;;;;;5087419;28;20036;-25
2023/10/10 10:21:32;;;;;;;38.05;30.15;;;21.70;99.90;;;;;;5077571;28;20038;-25
2023/10/10 10:24:15;;;;;;;36.75;28.60;;;21.70;99.90;;;;;;5074321;28;20085;-25
2023/10/10 10:26:44;;;;;;;;;;;21.70;99.90;;;;;;5091830;28;20088;-26
2023/10/10 10:29:28;;;;;;;34.90;28.40;;;21.70;99.90;;;;;;5068360;28;20002;-26
2023/10/10 10:31:59;;;;;;;34.28;29.83;;;21.80;99.90;;;;;;5086549;28;20032;-25
2023/10/10 10:37:12;;;;;;;35.78;29.10;;;22.10;99.90;;;;;;5088289;28;20391;-25
2023/10/10 10:40:22;;;;;;;33.37;27.20;;;22.30;99.90;;;;;;5080474;28;20048;-26
2023/10/10 10:42:27;;;;;;;29.80;24.90;;;22.20;99.90;;;;;;5085478;28;20040;-26
2023/10/10 10:44:55;;;;;;;33.95;25.20;;;22.10;99.90;;;;;;5069175;28;20043;-25
2023/10/10 10:47:37;;;;;;;25.45;21.83;;;22.10;99.90;;;;;;5085860;28;20419;-26
2023/10/10 10:50:04;;;;;;;31.95;24.63;;;22.40;99.90;;;;;;5086287;28;20051;-26
2023/10/10 10:52:58;;;;;;;28.63;24.40;;;22.50;99.90;;;;;;5083007;28;20044;-25
2023/10/10 10:55:27;;;;;;;27.40;22.50;;;22.70;99.90;;;;;;5090728;28;20036;-26
2023/10/10 11:01:07;;;;;;;27.58;22.83;;;23.50;99.90;;;;;;5034716;28;20518;-26
2023/10/10 11:03:37;;;;;;;28.30;22.50;;;23.90;99.90;;;;;;5081758;28;20418;-25
2023/10/10 11:06:07;;;;;;;26.17;21.70;;;24.10;99.90;;;;;;5084798;28;20032;-25
2023/10/10 11:14:09;;;;;;;29.17;25.13;;;23.70;99.90;;;;;;5089474;28;20043;-25
2023/10/10 11:16:38;;;;;;;28.10;22.95;;;23.80;99.90;;;;;;5093504;28;20039;-26
2023/10/10 11:21:53;;;;;;;25.40;20.90;;;23.50;99.90;;;;;;5087809;28;20044;-25
2023/10/10 11:24:23;;;;;;;26.33;22.30;;;23.40;99.90;;;;;;5072031;28;20375;-26
2023/10/10 11:27:13;;;;;;;27.35;21.80;;;23.30;99.90;;;;;;5089758;28;20036;-26
2023/10/10 11:30:00;;;;;;;30.55;22.52;;;23.10;99.90;;;;;;5067606;28;20093;-25
2023/10/10 11:32:36;;;;;;;28.95;22.65;;;22.80;99.90;;;;;;5079902;28;20524;-26
2023/10/10 11:35:17;;;;;;;35.90;22.55;;;22.50;99.90;;;;;;5091201;28;20100;-26
2023/10/10 11:38:35;;;;;;;34.85;23.70;;;22.50;99.90;;;;;;5070284;28;20048;-26
2023/10/10 11:40:31;;;;;;;28.77;22.20;;;22.70;99.90;;;;;;5069915;28;20071;-25
2023/10/10 11:43:11;;;;;;;29.33;21.98;;;23.10;99.90;;;;;;5088041;28;20109;-25
2023/10/10 11:45:39;;;;;;;30.63;22.38;;;23.60;99.90;;;;;;5084896;28;20024;-25
2023/10/10 11:48:12;;;;;;;26.48;21.63;;;23.90;99.90;;;;;;5084896;28;20311;-25
2023/10/10 11:50:48;;;;;;;27.23;20.88;;;23.90;99.90;;;;;;5085469;28;20044;-25
2023/10/10 11:53:23;;;;;;;26.02;20.70;;;23.70;99.90;;;;;;5078547;28;20045;-25
2023/10/10 11:55:53;;;;;;;25.90;21.23;;;23.80;99.90;;;;;;5075892;28;20040;-25
2023/10/10 11:58:37;;;;;;;28.63;22.20;;;24.00;99.90;;;;;;5085863;28;20041;-25
2023/10/10 12:01:18;;;;;;;27.35;21.85;;;24.20;99.90;;;;;;5078446;28;20119;-25
2023/10/10 12:03:43;;;;;;;25.52;20.60;;;24.40;99.90;;;;;;5068804;28;20043;-26
2023/10/10 12:06:14;;;;;;;25.60;20.83;;;24.40;99.90;;;;;;5081071;28;20033;-26
2023/10/10 12:08:50;;;;;;;29.38;20.67;;;24.40;99.90;;;;;;5086768;28;20478;-26
2023/10/10 12:11:23;;;;;;;27.35;20.33;;;24.70;99.90;;;;;;5081204;28;20032;-26
2023/10/10 12:13:50;;;;;;;26.08;20.27;;;25.00;99.90;;;;;;5090198;28;20093;-26
2023/10/10 12:16:17;;;;;;;24.77;20.67;;;24.80;99.90;;;;;;5088777;28;20040;-26
2023/10/10 12:18:45;;;;;;;27.17;18.63;;;24.80;99.90;;;;;;5087304;28;20051;-25
2023/10/10 12:21:15;;;;;;;25.70;17.75;;;24.90;99.90;;;;;;5083733;28;20560;-26
2023/10/10 12:23:41;;;;;;;20.85;17.60;;;25.00;99.90;;;;;;5082939;28;20040;-26
2023/10/10 12:26:10;;;;;;;21.73;17.52;;;25.00;99.90;;;;;;5087684;28;20055;-26
2023/10/10 12:28:36;;;;;;;20.17;15.80;;;24.90;99.90;;;;;;5087203;28;20040;-26
2023/10/10 12:31:03;;;;;;;20.23;16.52;;;24.50;99.90;;;;;;5088889;28;20044;-26
2023/10/10 12:33:29;;;;;;;19.92;16.33;;;24.70;99.90;;;;;;5085934;28;20119;-25
2023/10/10 12:35:56;;;;;;;21.50;16.92;;;24.80;99.90;;;;;;5085433;28;20036;-26
2023/10/10 12:38:23;;;;;;;23.35;16.17;;;24.80;99.90;;;;;;5088510;28;20502;-26
2023/10/10 12:40:49;;;;;;;19.23;16.17;;;24.70;99.90;;;;;;5082558;28;20040;-26
2023/10/10 12:43:15;;;;;;;22.77;17.95;;;24.50;99.90;;;;;;5079101;28;20040;-26
2023/10/10 12:45:41;;;;;;;19.45;16.13;;;24.50;99.90;;;;;;5090840;28;20043;-26
2023/10/10 12:48:20;;;;;;;18.50;16.48;;;24.40;99.90;;;;;;5082288;28;20035;-26
2023/10/10 12:50:47;;;;;;;19.50;16.55;;;24.50;99.90;;;;;;5091325;28;20082;-25
2023/10/10 12:53:19;;;;;;;21.42;17.63;;;24.50;99.90;;;;;;5093110;28;20488;-25
2023/10/10 12:55:49;;;;;;;19.33;16.13;;;24.20;99.90;;;;;;5090042;28;20045;-26
2023/10/10 12:58:16;;;;;;;21.45;17.15;;;23.90;99.90;;;;;;5086262;28;20419;-26
2023/10/10 13:00:51;;;;;;;21.05;16.70;;;23.60;99.90;;;;;;5091816;28;20032;-25
2023/10/10 13:03:28;;;;;;;21.45;17.50;;;23.40;99.90;;;;;;5094076;28;20126;-25
2023/10/10 13:06:03;;;;;;;23.42;17.52;;;23.00;99.90;;;;;;5092985;28;20043;-26
2023/10/10 13:08:46;;;;;;;22.52;16.33;;;22.80;99.90;;;;;;5074834;28;20052;-25
2023/10/10 13:11:17;;;;;;;20.48;16.00;;;22.60;99.90;;;;;;5085756;28;20089;-26
2023/10/10 13:13:56;;;;;;;21.42;16.73;;;22.50;99.90;;;;;;5091485;28;20127;-26
2023/10/10 13:16:25;;;;;;;20.73;15.90;;;22.40;99.90;;;;;;5088574;28;20040;-26
2023/10/10 13:18:55;;;;;;;21.42;15.30;;;22.30;99.90;;;;;;5090228;28;20112;-26
2023/10/10 13:21:22;;;;;;;20.05;16.60;;;22.30;99.90;;;;;;5088376;28;20067;-26
2023/10/10 13:23:52;;;;;;;18.50;15.52;;;22.30;99.90;;;;;;5087510;28;20040;-26
2023/10/10 13:26:20;;;;;;;19.17;15.60;;;22.20;99.90;;;;;;5082751;28;20036;-26
2023/10/10 13:28:46;;;;;;;22.80;16.50;;;22.10;99.90;;;;;;5092264;28;20410;-26
2023/10/10 13:31:19;;;;;;;23.38;17.30;;;22.10;99.90;;;;;;5065087;28;20048;-26
2023/10/10 13:33:45;;;;;;;19.98;16.13;;;22.00;99.90;;;;;;5087330;28;20079;-26
2023/10/10 13:36:12;;;;;;;21.55;16.52;;;22.00;99.90;;;;;;5090003;28;20064;-26
2023/10/10 13:38:47;;;;;;;21.15;16.25;;;22.00;99.90;;;;;;5087006;28;20119;-26
2023/10/10 13:41:16;;;;;;;22.52;16.13;;;21.90;99.90;;;;;;5066192;28;21321;-26
2023/10/10 13:43:47;;;;;;;20.63;16.70;;;21.90;99.90;;;;;;5091624;28;20043;-26
2023/10/10 13:46:18;;;;;;;18.10;15.20;;;22.00;99.90;;;;;;5081015;28;20036;-26
2023/10/10 13:48:45;;;;;;;20.92;16.38;;;22.10;99.90;;;;;;5091285;28;20076;-26
2023/10/10 13:51:13;;;;;;;20.67;16.60;;;22.50;99.90;;;;;;5085309;28;20072;-26
2023/10/10 13:53:40;;;;;;;20.10;15.73;;;23.00;99.90;;;;;;5081981;28;20036;-26
2023/10/10 13:56:07;;;;;;;20.55;16.02;;;23.40;99.90;;;;;;5086002;28;20044;-26
2023/10/10 13:58:36;;;;;;;21.50;15.77;;;23.40;99.90;;;;;;5068798;28;20033;-26
2023/10/10 14:01:18;;;;;;;20.70;16.08;;;23.40;99.90;;;;;;5081193;28;20060;-26
2023/10/10 14:03:46;;;;;;;19.08;14.88;;;23.20;99.90;;;;;;5084691;28;20452;-27
2023/10/10 14:06:20;;;;;;;18.73;15.27;;;23.00;99.90;;;;;;5083133;28;20044;-26
2023/10/10 14:08:49;;;;;;;20.50;14.80;;;22.80;99.90;;;;;;5076461;28;20044;-30
2023/10/10 14:11:22;;;;;;;18.55;14.88;;;22.60;99.90;;;;;;5083888;28;20051;-26
2023/10/10 14:13:53;;;;;;;20.33;15.43;;;22.50;99.90;;;;;;5092148;28;20040;-27
2023/10/10 14:16:20;;;;;;;18.98;14.65;;;22.30;99.90;;;;;;5083816;28;20047;-26
2023/10/10 14:18:49;;;;;;;19.98;15.63;;;22.20;99.90;;;;;;5084399;28;20073;-26
2023/10/10 14:21:16;;;;;;;20.88;14.75;;;22.00;99.90;;;;;;5092734;28;20047;-25
2023/10/10 14:23:46;;;;;;;20.33;15.63;;;21.90;99.90;;;;;;5093257;28;20050;-25
2023/10/10 14:26:18;;;;;;;18.42;15.73;;;21.80;99.90;;;;;;5072586;28;20376;-26
2023/10/10 14:28:51;;;;;;;16.38;14.13;;;21.90;99.90;;;;;;5084543;28;20044;-24
2023/10/10 14:31:27;;;;;;;19.17;15.38;;;21.80;99.90;;;;;;5088334;28;20040;-26
2023/10/10 14:33:54;;;;;;;18.60;14.60;;;21.90;99.90;;;;;;5089779;28;20032;-26
2023/10/10 14:36:21;;;;;;;20.92;14.57;;;22.00;99.90;;;;;;5089950;28;20338;-27
2023/10/10 14:38:50;;;;;;;17.52;14.90;;;22.20;99.90;;;;;;5076197;28;20036;-29
2023/10/10 14:41:19;;;;;;;15.27;13.63;;;22.30;99.90;;;;;;5081891;28;20044;-29
2023/10/10 14:43:47;;;;;;;16.00;13.90;;;22.30;99.90;;;;;;5081113;28;20044;-30
2023/10/10 14:46:27;;;;;;;18.02;13.98;;;22.50;99.90;;;;;;5081353;28;20041;-28
2023/10/10 14:49:06;;;;;;;18.38;13.70;;;22.50;99.90;;;;;;5083590;28;20067;-30
2023/10/10 14:51:36;;;;;;;15.43;13.82;;;22.50;99.90;;;;;;5088108;28;20484;-28
2023/10/10 14:54:08;;;;;;;18.80;14.40;;;22.40;99.90;;;;;;5088513;28;20078;-29
2023/10/10 14:56:36;;;;;;;17.73;13.40;;;22.30;99.90;;;;;;5089286;28;20059;-29
2023/10/10 14:59:06;;;;;;;19.67;13.27;;;22.20;99.90;;;;;;5078856;28;20036;-29
2023/10/10 15:01:36;;;;;;;15.85;13.27;;;22.10;99.90;;;;;;5090659;28;20032;-28
2023/10/10 15:04:08;;;;;;;18.65;13.55;;;22.00;99.90;;;;;;5088662;28;20044;-32
2023/10/10 15:06:35;;;;;;;18.38;14.27;;;21.80;99.90;;;;;;5088920;28;20104;-28
2023/10/10 15:09:01;;;;;;;16.15;14.00;;;21.60;99.90;;;;;;5083249;28;20107;-32
2023/10/10 15:11:28;;;;;;;17.13;14.18;;;21.50;99.90;;;;;;5078532;28;20514;-29
2023/10/10 15:13:55;;;;;;;18.30;12.82;;;21.50;99.90;;;;;;5086244;28;20032;-29
2023/10/10 15:16:23;;;;;;;20.48;14.65;;;21.40;99.90;;;;;;5080438;28;20039;-30
2023/10/10 15:18:54;;;;;;;18.33;13.70;;;21.40;99.90;;;;;;5084978;28;20043;-30
2023/10/10 15:21:21;;;;;;;16.38;13.75;;;21.30;99.90;;;;;;5087487;28;20039;-29
2023/10/10 15:26:30;;;;;;;;;;;21.10;99.90;;;;;;5075841;28;20048;-27
2023/10/10 15:28:57;;;;;;;17.92;14.45;;;20.90;99.90;;;;;;5079426;28;19938;-27
2023/10/10 15:31:30;;;;;;;18.40;14.25;;;20.90;99.90;;;;;;5073624;28;20036;-27
2023/10/10 15:33:57;;;;;;;15.35;12.32;;;20.80;99.90;;;;;;5070852;28;20491;-28
2023/10/10 15:36:30;;;;;;;18.27;14.55;;;20.80;99.90;;;;;;5071847;28;20036;-27
2023/10/10 15:39:06;;;;;;;18.85;13.65;;;20.80;99.90;;;;;;5050412;28;20046;-27
2023/10/10 15:41:34;;;;;;;16.73;14.27;;;20.70;99.90;;;;;;5074124;28;20116;-27
2023/10/10 15:44:03;;;;;;;17.83;13.57;;;20.60;99.90;;;;;;5079618;28;20055;-27